sensor_id;sensor_type;location;lat;lon;timestamp;pressure;altitude;pressure_sealevel;temperature;humidity
75359;BME280;64046;51.978;5.934;2023-03-14T00:00:42;98761.84;;;15.81;92.30
75359;BME280;64046;51.978;5.934;2023-03-14T00:03:11;98759.34;;;15.80;92.47
75359;BME280;64046;51.978;5.934;2023-03-14T00:05:40;98763.09;;;15.77;92.48
75359;BME280;64046;51.978;5.934;2023-03-14T00:08:09;98755.03;;;15.79;92.56
75359;BME280;64046;51.978;5.934;2023-03-14T00:10:39;98747.66;;;15.82;92.64
75359;BME280;64046;51.978;5.934;2023-03-14T00:13:09;98751.31;;;15.71;92.88
75359;BME280;64046;51.978;5.934;2023-03-14T00:15:40;98739.75;;;15.82;92.73
75359;BME280;64046;51.978;5.934;2023-03-14T00:18:10;98754.28;;;15.68;93.08
75359;BME280;64046;51.978;5.934;2023-03-14T00:20:39;98750.81;;;15.68;93.27
75359;BME280;64046;51.978;5.934;2023-03-14T00:23:08;98753.75;;;15.65;93.76
75359;BME280;64046;51.978;5.934;2023-03-14T00:25:37;98760.84;;;15.64;94.01
75359;BME280;64046;51.978;5.934;2023-03-14T00:28:06;98771.53;;;15.63;94.45
75359;BME280;64046;51.978;5.934;2023-03-14T00:30:40;98765.38;;;15.72;94.60
75359;BME280;64046;51.978;5.934;2023-03-14T00:33:09;98772.47;;;15.53;94.92
75359;BME280;64046;51.978;5.934;2023-03-14T00:35:38;98771.91;;;15.50;94.72
75359;BME280;64046;51.978;5.934;2023-03-14T00:38:07;98769.88;;;15.44;94.86
75359;BME280;64046;51.978;5.934;2023-03-14T00:40:39;98776.75;;;15.54;94.47
75359;BME280;64046;51.978;5.934;2023-03-14T00:43:10;98768.81;;;15.36;94.07
75359;BME280;64046;51.978;5.934;2023-03-14T00:45:41;98766.50;;;15.51;93.30
75359;BME280;64046;51.978;5.934;2023-03-14T00:48:11;98778.94;;;15.41;93.06
75359;BME280;64046;51.978;5.934;2023-03-14T00:50:40;98775.69;;;15.47;92.53
75359;BME280;64046;51.978;5.934;2023-03-14T00:53:10;98779.75;;;15.42;92.07
75359;BME280;64046;51.978;5.934;2023-03-14T00:55:40;98782.25;;;15.43;91.18
75359;BME280;64046;51.978;5.934;2023-03-14T00:58:10;98781.56;;;15.41;90.48
75359;BME280;64046;51.978;5.934;2023-03-14T01:00:43;98773.59;;;15.51;89.58
75359;BME280;64046;51.978;5.934;2023-03-14T01:03:14;98770.03;;;15.42;89.54
75359;BME280;64046;51.978;5.934;2023-03-14T01:05:43;98785.94;;;15.32;89.27
75359;BME280;64046;51.978;5.934;2023-03-14T01:08:12;98777.47;;;15.29;88.93
75359;BME280;64046;51.978;5.934;2023-03-14T01:10:42;98780.97;;;15.29;88.91
75359;BME280;64046;51.978;5.934;2023-03-14T01:13:11;98787.06;;;15.30;88.57
75359;BME280;64046;51.978;5.934;2023-03-14T01:15:43;98781.81;;;15.48;88.00
75359;BME280;64046;51.978;5.934;2023-03-14T01:18:12;98776.19;;;15.33;88.09
75359;BME280;64046;51.978;5.934;2023-03-14T01:20:43;98790.09;;;15.35;87.68
75359;BME280;64046;51.978;5.934;2023-03-14T01:23:12;98785.78;;;15.34;87.37
75359;BME280;64046;51.978;5.934;2023-03-14T01:25:41;98790.91;;;15.35;87.36
75359;BME280;64046;51.978;5.934;2023-03-14T01:28:10;98783.91;;;15.26;87.08
75359;BME280;64046;51.978;5.934;2023-03-14T01:30:42;98786.84;;;15.23;86.63
75359;BME280;64046;51.978;5.934;2023-03-14T01:33:12;98785.03;;;15.23;86.09
75359;BME280;64046;51.978;5.934;2023-03-14T01:35:44;98790.28;;;15.23;85.30
75359;BME280;64046;51.978;5.934;2023-03-14T01:38:13;98801.00;;;15.22;84.69
75359;BME280;64046;51.978;5.934;2023-03-14T01:40:43;98793.31;;;15.29;84.61
75359;BME280;64046;51.978;5.934;2023-03-14T01:43:16;98782.84;;;15.37;84.06
75359;BME280;64046;51.978;5.934;2023-03-14T01:48:59;98793.91;;;15.22;84.70
75359;BME280;64046;51.978;5.934;2023-03-14T01:51:36;98793.25;;;15.20;85.17
75359;BME280;64046;51.978;5.934;2023-03-14T01:54:10;98782.84;;;15.19;85.21
75359;BME280;64046;51.978;5.934;2023-03-14T01:56:42;98796.75;;;15.11;85.31
75359;BME280;64046;51.978;5.934;2023-03-14T01:59:15;98785.13;;;15.04;85.82
75359;BME280;64046;51.978;5.934;2023-03-14T02:01:46;98789.28;;;15.07;87.54
75359;BME280;64046;51.978;5.934;2023-03-14T02:04:19;98787.91;;;15.02;89.25
75359;BME280;64046;51.978;5.934;2023-03-14T02:09:25;98768.81;;;14.53;95.29
75359;BME280;64046;51.978;5.934;2023-03-14T02:11:54;98766.59;;;14.48;96.98
75359;BME280;64046;51.978;5.934;2023-03-14T02:14:40;98761.38;;;14.39;98.04
75359;BME280;64046;51.978;5.934;2023-03-14T02:17:24;98776.63;;;14.35;99.24
75359;BME280;64046;51.978;5.934;2023-03-14T02:20:31;98777.84;;;14.41;100.00
75359;BME280;64046;51.978;5.934;2023-03-14T02:23:03;98786.38;;;14.15;100.00
75359;BME280;64046;51.978;5.934;2023-03-14T02:25:39;98781.09;;;14.25;100.00
75359;BME280;64046;51.978;5.934;2023-03-14T02:28:16;98774.56;;;14.19;100.00
75359;BME280;64046;51.978;5.934;2023-03-14T02:30:47;98777.78;;;14.03;100.00
75359;BME280;64046;51.978;5.934;2023-03-14T02:33:19;98776.94;;;14.12;100.00
75359;BME280;64046;51.978;5.934;2023-03-14T02:35:52;98776.94;;;14.12;100.00
75359;BME280;64046;51.978;5.934;2023-03-14T02:38:26;98783.19;;;14.11;100.00
75359;BME280;64046;51.978;5.934;2023-03-14T02:41:00;98775.84;;;13.95;100.00
75359;BME280;64046;51.978;5.934;2023-03-14T02:43:35;98768.34;;;14.10;100.00
75359;BME280;64046;51.978;5.934;2023-03-14T02:46:10;98773.47;;;14.12;100.00
75359;BME280;64046;51.978;5.934;2023-03-14T02:48:43;98766.25;;;14.24;100.00
75359;BME280;64046;51.978;5.934;2023-03-14T02:51:16;98758.22;;;14.15;100.00
75359;BME280;64046;51.978;5.934;2023-03-14T02:53:47;98757.09;;;14.18;100.00
75359;BME280;64046;51.978;5.934;2023-03-14T02:56:17;98757.81;;;14.20;100.00
75359;BME280;64046;51.978;5.934;2023-03-14T02:58:48;98770.09;;;14.39;100.00
75359;BME280;64046;51.978;5.934;2023-03-14T03:01:30;98768.19;;;14.22;100.00
75359;BME280;64046;51.978;5.934;2023-03-14T03:04:00;98771.94;;;14.19;100.00
75359;BME280;64046;51.978;5.934;2023-03-14T03:06:29;98760.31;;;14.22;100.00
75359;BME280;64046;51.978;5.934;2023-03-14T03:08:59;98759.03;;;14.26;100.00
75359;BME280;64046;51.978;5.934;2023-03-14T03:11:29;98749.31;;;14.26;100.00
75359;BME280;64046;51.978;5.934;2023-03-14T03:14:01;98746.53;;;14.38;100.00
75359;BME280;64046;51.978;5.934;2023-03-14T03:16:30;98744.63;;;14.20;100.00
75359;BME280;64046;51.978;5.934;2023-03-14T03:19:00;98738.66;;;14.18;100.00
75359;BME280;64046;51.978;5.934;2023-03-14T03:21:29;98748.91;;;14.21;100.00
75359;BME280;64046;51.978;5.934;2023-03-14T03:23:58;98745.47;;;14.21;100.00
75359;BME280;64046;51.978;5.934;2023-03-14T03:26:28;98738.28;;;14.13;100.00
75359;BME280;64046;51.978;5.934;2023-03-14T03:28:57;98731.78;;;14.07;100.00
75359;BME280;64046;51.978;5.934;2023-03-14T03:31:29;98727.84;;;14.21;100.00
75359;BME280;64046;51.978;5.934;2023-03-14T03:33:58;98734.69;;;14.04;100.00
75359;BME280;64046;51.978;5.934;2023-03-14T03:36:28;98737.88;;;14.08;100.00
75359;BME280;64046;51.978;5.934;2023-03-14T03:38:59;98734.13;;;14.10;100.00
75359;BME280;64046;51.978;5.934;2023-03-14T03:41:29;98737.84;;;14.17;100.00
75359;BME280;64046;51.978;5.934;2023-03-14T03:43:59;98719.28;;;14.09;100.00
75359;BME280;64046;51.978;5.934;2023-03-14T03:46:31;98729.06;;;14.27;100.00
75359;BME280;64046;51.978;5.934;2023-03-14T03:49:01;98728.84;;;14.10;100.00
75359;BME280;64046;51.978;5.934;2023-03-14T03:51:30;98726.50;;;14.17;100.00
75359;BME280;64046;51.978;5.934;2023-03-14T03:53:59;98726.19;;;14.20;100.00
75359;BME280;64046;51.978;5.934;2023-03-14T03:56:32;98734.63;;;14.24;100.00
75359;BME280;64046;51.978;5.934;2023-03-14T03:59:01;98726.50;;;14.17;100.00
75359;BME280;64046;51.978;5.934;2023-03-14T04:01:33;98728.22;;;14.36;99.87
75359;BME280;64046;51.978;5.934;2023-03-14T04:04:03;98732.13;;;14.22;99.82
75359;BME280;64046;51.978;5.934;2023-03-14T04:06:32;98731.84;;;14.25;99.19
75359;BME280;64046;51.978;5.934;2023-03-14T04:09:02;98734.06;;;14.30;98.75
75359;BME280;64046;51.978;5.934;2023-03-14T04:11:37;98722.66;;;14.39;98.23
75359;BME280;64046;51.978;5.934;2023-03-14T04:14:36;98731.25;;;14.41;97.92
75359;BME280;64046;51.978;5.934;2023-03-14T04:17:23;98718.75;;;14.53;97.37
75359;BME280;64046;51.978;5.934;2023-03-14T04:19:52;98717.41;;;14.39;97.23
75359;BME280;64046;51.978;5.934;2023-03-14T04:22:27;98715.56;;;14.40;97.05
75359;BME280;64046;51.978;5.934;2023-03-14T04:24:56;98720.69;;;14.41;96.74
75359;BME280;64046;51.978;5.934;2023-03-14T04:27:26;98710.88;;;14.43;96.75
75359;BME280;64046;51.978;5.934;2023-03-14T04:29:56;98722.94;;;14.46;96.48
75359;BME280;64046;51.978;5.934;2023-03-14T04:32:51;98720.50;;;14.62;95.97
75359;BME280;64046;51.978;5.934;2023-03-14T04:35:23;98713.06;;;14.48;95.92
75359;BME280;64046;51.978;5.934;2023-03-14T04:37:57;98713.22;;;14.46;95.61
75359;BME280;64046;51.978;5.934;2023-03-14T04:40:26;98704.34;;;14.47;95.49
75359;BME280;64046;51.978;5.934;2023-03-14T04:43:00;98710.88;;;14.43;95.39
75359;BME280;64046;51.978;5.934;2023-03-14T04:45:30;98709.91;;;14.44;95.10
75359;BME280;64046;51.978;5.934;2023-03-14T04:48:05;98701.50;;;14.59;94.99
75359;BME280;64046;51.978;5.934;2023-03-14T04:50:34;98701.16;;;14.44;94.59
75359;BME280;64046;51.978;5.934;2023-03-14T04:53:04;98705.44;;;14.45;94.64
75359;BME280;64046;51.978;5.934;2023-03-14T04:55:34;98698.22;;;14.47;94.39
75359;BME280;64046;51.978;5.934;2023-03-14T04:58:03;98697.25;;;14.48;94.06
75359;BME280;64046;51.978;5.934;2023-03-14T05:00:33;98700.84;;;14.47;94.19
75359;BME280;64046;51.978;5.934;2023-03-14T05:03:14;98686.66;;;14.67;93.40
75359;BME280;64046;51.978;5.934;2023-03-14T05:06:04;98695.16;;;14.51;93.88
75359;BME280;64046;51.978;5.934;2023-03-14T05:08:49;98697.94;;;14.50;93.66
75359;BME280;64046;51.978;5.934;2023-03-14T05:11:47;98687.41;;;14.50;93.37
75359;BME280;64046;51.978;5.934;2023-03-14T05:14:31;98699.06;;;14.47;93.18
75359;BME280;64046;51.978;5.934;2023-03-14T05:17:16;98693.09;;;14.45;93.38
75359;BME280;64046;51.978;5.934;2023-03-14T05:19:48;98681.53;;;14.56;93.32
75359;BME280;64046;51.978;5.934;2023-03-14T05:22:53;98691.34;;;14.36;94.04
75359;BME280;64046;51.978;5.934;2023-03-14T05:25:45;98690.78;;;14.32;94.60
75359;BME280;64046;51.978;5.934;2023-03-14T05:28:37;98686.38;;;14.33;94.54
75359;BME280;64046;51.978;5.934;2023-03-14T05:31:41;98680.41;;;14.31;94.98
75359;BME280;64046;51.978;5.934;2023-03-14T05:34:24;98695.81;;;14.26;95.82
75359;BME280;64046;51.978;5.934;2023-03-14T05:37:14;98689.66;;;14.35;96.33
75359;BME280;64046;51.978;5.934;2023-03-14T05:39:57;98688.47;;;14.19;97.07
75359;BME280;64046;51.978;5.934;2023-03-14T05:42:36;98682.53;;;14.17;97.68
75359;BME280;64046;51.978;5.934;2023-03-14T05:45:11;98684.47;;;14.15;97.95
75359;BME280;64046;51.978;5.934;2023-03-14T05:48:03;98684.34;;;14.17;98.24
75359;BME280;64046;51.978;5.934;2023-03-14T05:50:45;98683.78;;;14.13;98.43
75359;BME280;64046;51.978;5.934;2023-03-14T05:53:28;98679.88;;;14.27;98.56
75359;BME280;64046;51.978;5.934;2023-03-14T05:56:22;98675.31;;;14.10;99.09
75359;BME280;64046;51.978;5.934;2023-03-14T05:59:06;98684.09;;;14.10;99.65
75359;BME280;64046;51.978;5.934;2023-03-14T06:01:44;98677.28;;;14.08;100.00
75359;BME280;64046;51.978;5.934;2023-03-14T06:04:18;98679.09;;;14.07;100.00
75359;BME280;64046;51.978;5.934;2023-03-14T06:06:53;98671.88;;;14.09;100.00
75359;BME280;64046;51.978;5.934;2023-03-14T06:09:25;98683.31;;;14.28;100.00
75359;BME280;64046;51.978;5.934;2023-03-14T06:11:57;98677.16;;;14.09;100.00
75359;BME280;64046;51.978;5.934;2023-03-14T06:14:30;98676.47;;;14.07;100.00
75359;BME280;64046;51.978;5.934;2023-03-14T06:16:59;98673.97;;;14.06;100.00
75359;BME280;64046;51.978;5.934;2023-03-14T06:19:34;98687.97;;;14.06;100.00
75359;BME280;64046;51.978;5.934;2023-03-14T06:22:03;98681.31;;;14.02;100.00
75359;BME280;64046;51.978;5.934;2023-03-14T06:24:37;98679.75;;;14.19;100.00
75359;BME280;64046;51.978;5.934;2023-03-14T06:27:06;98685.22;;;13.98;100.00
75359;BME280;64046;51.978;5.934;2023-03-14T06:29:36;98682.88;;;13.95;100.00
75359;BME280;64046;51.978;5.934;2023-03-14T06:32:05;98676.06;;;13.92;100.00
75359;BME280;64046;51.978;5.934;2023-03-14T06:34:36;98681.34;;;13.92;100.00
75359;BME280;64046;51.978;5.934;2023-03-14T06:37:06;98672.63;;;13.92;100.00
75359;BME280;64046;51.978;5.934;2023-03-14T06:39:38;98676.63;;;14.06;100.00
75359;BME280;64046;51.978;5.934;2023-03-14T06:42:16;98667.88;;;13.95;100.00
75359;BME280;64046;51.978;5.934;2023-03-14T06:44:45;98681.75;;;13.97;100.00
75359;BME280;64046;51.978;5.934;2023-03-14T06:47:15;98677.47;;;13.96;100.00
75359;BME280;64046;51.978;5.934;2023-03-14T06:49:45;98677.47;;;13.96;100.00
75359;BME280;64046;51.978;5.934;2023-03-14T06:52:14;98681.63;;;13.99;100.00
75359;BME280;64046;51.978;5.934;2023-03-14T06:54:46;98677.00;;;14.11;100.00
75359;BME280;64046;51.978;5.934;2023-03-14T06:57:17;98673.16;;;13.95;100.00
75359;BME280;64046;51.978;5.934;2023-03-14T06:59:47;98682.72;;;13.96;100.00
75359;BME280;64046;51.978;5.934;2023-03-14T07:02:16;98668.31;;;13.91;100.00
75359;BME280;64046;51.978;5.934;2023-03-14T07:04:46;98683.72;;;13.86;100.00
75359;BME280;64046;51.978;5.934;2023-03-14T07:07:16;98680.81;;;13.89;100.00
75359;BME280;64046;51.978;5.934;2023-03-14T07:09:48;98672.69;;;14.10;100.00
75359;BME280;64046;51.978;5.934;2023-03-14T07:12:17;98685.06;;;13.99;100.00
75359;BME280;64046;51.978;5.934;2023-03-14T07:14:46;98693.91;;;14.08;100.00
75359;BME280;64046;51.978;5.934;2023-03-14T07:17:15;98687.38;;;14.12;100.00
75359;BME280;64046;51.978;5.934;2023-03-14T07:19:45;98698.34;;;14.17;100.00
75359;BME280;64046;51.978;5.934;2023-03-14T07:22:14;98713.84;;;14.21;100.00
75359;BME280;64046;51.978;5.934;2023-03-14T07:24:43;98713.31;;;14.17;100.00
75359;BME280;64046;51.978;5.934;2023-03-14T07:27:15;98720.75;;;14.31;100.00
75359;BME280;64046;51.978;5.934;2023-03-14T07:29:44;98728.13;;;14.18;100.00
75359;BME280;64046;51.978;5.934;2023-03-14T07:32:13;98763.09;;;14.10;100.00
75359;BME280;64046;51.978;5.934;2023-03-14T07:34:43;98773.50;;;14.02;100.00
75359;BME280;64046;51.978;5.934;2023-03-14T07:37:13;98777.13;;;13.91;100.00
75359;BME280;64046;51.978;5.934;2023-03-14T07:39:42;98786.25;;;13.77;100.00
75359;BME280;64046;51.978;5.934;2023-03-14T07:42:21;98794.69;;;13.81;100.00
75359;BME280;64046;51.978;5.934;2023-03-14T07:45:10;98805.50;;;13.58;100.00
75359;BME280;64046;51.978;5.934;2023-03-14T07:47:39;98822.53;;;13.44;100.00
75359;BME280;64046;51.978;5.934;2023-03-14T07:50:10;98841.97;;;13.32;100.00
75359;BME280;64046;51.978;5.934;2023-03-14T07:52:39;98856.13;;;13.00;100.00
75359;BME280;64046;51.978;5.934;2023-03-14T07:55:09;98858.56;;;12.92;100.00
75359;BME280;64046;51.978;5.934;2023-03-14T07:57:42;98861.59;;;12.87;100.00
75359;BME280;64046;51.978;5.934;2023-03-14T08:00:12;98865.66;;;12.70;100.00
75359;BME280;64046;51.978;5.934;2023-03-14T08:02:42;98879.19;;;12.66;100.00
75359;BME280;64046;51.978;5.934;2023-03-14T08:05:11;98885.81;;;12.60;100.00
75359;BME280;64046;51.978;5.934;2023-03-14T08:07:40;98894.78;;;12.57;100.00
75359;BME280;64046;51.978;5.934;2023-03-14T08:10:10;98902.25;;;12.62;100.00
75359;BME280;64046;51.978;5.934;2023-03-14T08:12:44;98917.31;;;12.60;100.00
75359;BME280;64046;51.978;5.934;2023-03-14T08:15:13;98922.22;;;12.32;100.00
75359;BME280;64046;51.978;5.934;2023-03-14T08:17:42;98924.94;;;12.21;100.00
75359;BME280;64046;51.978;5.934;2023-03-14T08:20:17;98926.94;;;12.17;100.00
75359;BME280;64046;51.978;5.934;2023-03-14T08:22:46;98934.25;;;12.14;100.00
75359;BME280;64046;51.978;5.934;2023-03-14T08:25:16;98945.69;;;12.24;100.00
75359;BME280;64046;51.978;5.934;2023-03-14T08:27:48;98951.72;;;12.36;100.00
75359;BME280;64046;51.978;5.934;2023-03-14T08:30:18;98962.72;;;12.29;100.00
75359;BME280;64046;51.978;5.934;2023-03-14T08:32:47;98964.44;;;12.19;100.00
75359;BME280;64046;51.978;5.934;2023-03-14T08:35:16;98976.13;;;12.15;100.00
75359;BME280;64046;51.978;5.934;2023-03-14T08:37:46;98989.41;;;12.14;100.00
75359;BME280;64046;51.978;5.934;2023-03-14T08:40:15;99006.22;;;12.11;100.00
75359;BME280;64046;51.978;5.934;2023-03-14T08:42:48;99025.91;;;12.05;100.00
75359;BME280;64046;51.978;5.934;2023-03-14T08:45:17;99034.38;;;11.86;100.00
75359;BME280;64046;51.978;5.934;2023-03-14T08:47:46;99040.09;;;11.69;100.00
75359;BME280;64046;51.978;5.934;2023-03-14T08:50:16;99074.94;;;11.59;100.00
75359;BME280;64046;51.978;5.934;2023-03-14T08:52:45;99088.28;;;11.56;100.00
75359;BME280;64046;51.978;5.934;2023-03-14T08:55:14;99097.53;;;11.38;100.00
75359;BME280;64046;51.978;5.934;2023-03-14T08:57:43;99105.94;;;11.19;100.00
75359;BME280;64046;51.978;5.934;2023-03-14T09:00:16;99119.31;;;11.27;100.00
75359;BME280;64046;51.978;5.934;2023-03-14T09:02:46;99129.00;;;11.02;100.00
75359;BME280;64046;51.978;5.934;2023-03-14T09:05:15;99142.34;;;10.99;100.00
75359;BME280;64046;51.978;5.934;2023-03-14T09:07:44;99158.88;;;11.00;100.00
75359;BME280;64046;51.978;5.934;2023-03-14T09:10:13;99164.00;;;11.01;100.00
75359;BME280;64046;51.978;5.934;2023-03-14T09:12:43;99180.59;;;11.02;100.00
75359;BME280;64046;51.978;5.934;2023-03-14T09:15:14;99186.59;;;10.91;100.00
75359;BME280;64046;51.978;5.934;2023-03-14T09:17:44;99205.16;;;10.88;100.00
75359;BME280;64046;51.978;5.934;2023-03-14T09:20:13;99227.00;;;10.76;100.00
75359;BME280;64046;51.978;5.934;2023-03-14T09:22:42;99219.56;;;10.69;100.00
75359;BME280;64046;51.978;5.934;2023-03-14T09:25:11;99231.00;;;10.68;100.00
75359;BME280;64046;51.978;5.934;2023-03-14T09:27:40;99234.06;;;10.62;100.00
75359;BME280;64046;51.978;5.934;2023-03-14T09:30:11;99257.94;;;10.70;100.00
75359;BME280;64046;51.978;5.934;2023-03-14T09:32:43;99260.00;;;10.78;97.71
75359;BME280;64046;51.978;5.934;2023-03-14T09:35:12;99272.69;;;10.59;96.95
75359;BME280;64046;51.978;5.934;2023-03-14T09:37:41;99281.19;;;10.62;95.99
75359;BME280;64046;51.978;5.934;2023-03-14T09:40:13;99290.81;;;10.87;95.62
75359;BME280;64046;51.978;5.934;2023-03-14T09:42:42;99307.59;;;10.85;95.02
75359;BME280;64046;51.978;5.934;2023-03-14T09:45:14;99316.38;;;10.97;92.81
75359;BME280;64046;51.978;5.934;2023-03-14T09:47:47;99318.97;;;11.10;93.09
75359;BME280;64046;51.978;5.934;2023-03-14T09:50:17;99336.63;;;10.95;90.53
75359;BME280;64046;51.978;5.934;2023-03-14T09:52:48;99340.38;;;11.03;88.42
75359;BME280;64046;51.978;5.934;2023-03-14T09:55:20;99360.09;;;10.96;88.59
75359;BME280;64046;51.978;5.934;2023-03-14T09:57:54;99370.75;;;11.06;87.89
75359;BME280;64046;51.978;5.934;2023-03-14T10:00:27;99388.59;;;11.01;86.66
75359;BME280;64046;51.978;5.934;2023-03-14T10:03:13;99388.59;;;11.14;86.51
75359;BME280;64046;51.978;5.934;2023-03-14T10:05:46;99399.19;;;10.99;86.09
75359;BME280;64046;51.978;5.934;2023-03-14T10:08:15;99404.94;;;10.91;83.15
75359;BME280;64046;51.978;5.934;2023-03-14T10:10:44;99414.06;;;10.86;82.59
75359;BME280;64046;51.978;5.934;2023-03-14T10:13:16;99428.41;;;11.06;82.67
75359;BME280;64046;51.978;5.934;2023-03-14T10:15:51;99441.53;;;11.19;83.18
75359;BME280;64046;51.978;5.934;2023-03-14T10:18:24;99448.75;;;11.28;82.47
75359;BME280;64046;51.978;5.934;2023-03-14T10:21:03;99463.94;;;11.36;81.53
75359;BME280;64046;51.978;5.934;2023-03-14T10:23:33;99470.91;;;11.24;81.78
75359;BME280;64046;51.978;5.934;2023-03-14T10:26:07;99494.59;;;11.35;80.43
75359;BME280;64046;51.978;5.934;2023-03-14T10:28:39;99489.78;;;11.29;80.11
75359;BME280;64046;51.978;5.934;2023-03-14T10:31:08;99493.22;;;11.17;79.98
75359;BME280;64046;51.978;5.934;2023-03-14T10:33:40;99500.06;;;11.32;78.70
75359;BME280;64046;51.978;5.934;2023-03-14T10:36:21;99517.97;;;11.38;78.41
75359;BME280;64046;51.978;5.934;2023-03-14T10:38:57;99542.13;;;11.43;78.08
75359;BME280;64046;51.978;5.934;2023-03-14T10:41:30;99564.25;;;11.27;77.57
75359;BME280;64046;51.978;5.934;2023-03-14T10:44:02;99559.34;;;11.35;77.98
75359;BME280;64046;51.978;5.934;2023-03-14T10:46:32;99565.72;;;11.43;78.14
75359;BME280;64046;51.978;5.934;2023-03-14T10:49:27;99590.06;;;11.58;76.55
75359;BME280;64046;51.978;5.934;2023-03-14T10:52:02;99595.53;;;11.42;77.34
75359;BME280;64046;51.978;5.934;2023-03-14T10:54:31;99612.03;;;11.17;78.84
75359;BME280;64046;51.978;5.934;2023-03-14T10:57:01;99622.34;;;11.33;78.99
75359;BME280;64046;51.978;5.934;2023-03-14T10:59:35;99649.66;;;11.31;78.18
75359;BME280;64046;51.978;5.934;2023-03-14T11:02:15;99655.94;;;11.28;78.45
75359;BME280;64046;51.978;5.934;2023-03-14T11:05:02;99678.66;;;11.15;79.23
75359;BME280;64046;51.978;5.934;2023-03-14T11:07:36;99684.59;;;11.04;80.11
75359;BME280;64046;51.978;5.934;2023-03-14T11:10:18;99702.47;;;10.97;78.80
75359;BME280;64046;51.978;5.934;2023-03-14T11:13:00;99702.88;;;10.91;76.89
75359;BME280;64046;51.978;5.934;2023-03-14T11:15:38;99715.09;;;10.78;78.20
75359;BME280;64046;51.978;5.934;2023-03-14T11:18:46;99714.09;;;10.93;77.37
75359;BME280;64046;51.978;5.934;2023-03-14T11:21:23;99737.97;;;10.88;78.38
75359;BME280;64046;51.978;5.934;2023-03-14T11:26:58;99756.22;;;10.90;80.93
75359;BME280;64046;51.978;5.934;2023-03-14T11:29:37;99770.13;;;10.78;80.74
75359;BME280;64046;51.978;5.934;2023-03-14T11:32:13;99773.38;;;10.67;82.22
75359;BME280;64046;51.978;5.934;2023-03-14T11:34:49;99777.78;;;10.66;79.18
75359;BME280;64046;51.978;5.934;2023-03-14T11:37:27;99783.13;;;10.65;78.07
75359;BME280;64046;51.978;5.934;2023-03-14T11:40:05;99790.03;;;10.66;78.70
75359;BME280;64046;51.978;5.934;2023-03-14T11:42:39;99794.16;;;10.70;78.27
75359;BME280;64046;51.978;5.934;2023-03-14T11:45:17;99821.31;;;10.83;77.59
75359;BME280;64046;51.978;5.934;2023-03-14T11:47:52;99805.47;;;10.85;76.28
75359;BME280;64046;51.978;5.934;2023-03-14T11:50:24;99818.78;;;10.82;74.86
75359;BME280;64046;51.978;5.934;2023-03-14T11:53:01;99825.03;;;10.94;73.62
75359;BME280;64046;51.978;5.934;2023-03-14T11:55:34;99843.28;;;10.95;74.18
75359;BME280;64046;51.978;5.934;2023-03-14T11:58:11;99832.50;;;11.00;71.53
75359;BME280;64046;51.978;5.934;2023-03-14T12:00:44;99850.13;;;10.98;71.46
75359;BME280;64046;51.978;5.934;2023-03-14T12:03:23;99856.47;;;11.08;67.55
75359;BME280;64046;51.978;5.934;2023-03-14T12:06:02;99851.34;;;11.06;65.87
75359;BME280;64046;51.978;5.934;2023-03-14T12:08:46;99857.28;;;11.23;64.87
75359;BME280;64046;51.978;5.934;2023-03-14T12:11:30;99865.63;;;11.30;65.12
75359;BME280;64046;51.978;5.934;2023-03-14T12:14:01;99884.84;;;11.16;63.76
75359;BME280;64046;51.978;5.934;2023-03-14T12:16:34;99881.75;;;11.23;60.57
75359;BME280;64046;51.978;5.934;2023-03-14T12:19:21;99902.97;;;11.33;59.33
75359;BME280;64046;51.978;5.934;2023-03-14T12:21:58;99890.66;;;11.21;58.22
75359;BME280;64046;51.978;5.934;2023-03-14T12:24:33;99905.81;;;11.16;57.34
75359;BME280;64046;51.978;5.934;2023-03-14T12:27:05;99900.75;;;11.13;56.44
75359;BME280;64046;51.978;5.934;2023-03-14T12:29:57;99925.56;;;11.36;53.79
75359;BME280;64046;51.978;5.934;2023-03-14T12:32:27;99921.53;;;11.16;53.49
75359;BME280;64046;51.978;5.934;2023-03-14T12:35:07;99933.91;;;11.42;50.24
75359;BME280;64046;51.978;5.934;2023-03-14T12:37:58;99933.44;;;11.36;49.56
75359;BME280;64046;51.978;5.934;2023-03-14T12:40:34;99937.25;;;11.45;48.26
75359;BME280;64046;51.978;5.934;2023-03-14T12:43:24;99949.25;;;11.49;46.71
75359;BME280;64046;51.978;5.934;2023-03-14T12:46:08;99947.00;;;11.42;45.16
75359;BME280;64046;51.978;5.934;2023-03-14T12:48:44;99959.47;;;11.24;45.37
75359;BME280;64046;51.978;5.934;2023-03-14T12:51:15;99961.06;;;11.27;45.21
75359;BME280;64046;51.978;5.934;2023-03-14T12:54:19;99969.31;;;11.50;44.44
75359;BME280;64046;51.978;5.934;2023-03-14T12:57:04;99972.31;;;11.43;44.49
75359;BME280;64046;51.978;5.934;2023-03-14T12:59:36;99973.25;;;11.28;44.92
75359;BME280;64046;51.978;5.934;2023-03-14T13:02:23;99977.38;;;11.47;44.85
75359;BME280;64046;51.978;5.934;2023-03-14T13:05:01;99977.47;;;11.45;44.70
75359;BME280;64046;51.978;5.934;2023-03-14T13:07:36;99992.25;;;11.46;44.11
75359;BME280;64046;51.978;5.934;2023-03-14T13:10:26;100006.41;;;11.43;44.29
75359;BME280;64046;51.978;5.934;2023-03-14T13:13:04;100009.34;;;11.53;43.63
75359;BME280;64046;51.978;5.934;2023-03-14T13:15:41;100029.06;;;11.45;43.87
75359;BME280;64046;51.978;5.934;2023-03-14T13:18:12;100020.09;;;11.49;43.13
75359;BME280;64046;51.978;5.934;2023-03-14T13:20:46;100025.22;;;11.50;43.05
75359;BME280;64046;51.978;5.934;2023-03-14T13:23:20;100035.28;;;11.58;43.07
75359;BME280;64046;51.978;5.934;2023-03-14T13:25:50;100039.94;;;11.38;43.28
75359;BME280;64046;51.978;5.934;2023-03-14T13:28:22;100050.25;;;11.56;43.12
75359;BME280;64046;51.978;5.934;2023-03-14T13:30:55;100069.09;;;11.63;43.06
75359;BME280;64046;51.978;5.934;2023-03-14T13:33:25;100060.41;;;11.48;43.23
75359;BME280;64046;51.978;5.934;2023-03-14T13:35:55;100075.94;;;11.65;43.37
75359;BME280;64046;51.978;5.934;2023-03-14T13:38:27;100085.13;;;11.58;42.10